Time;durP1;ratioP1;P1;durP2;ratioP2;P2;SDS_P1;SDS_P2;PMS_P1;PMS_P2;Temp;Humidity;BMP_temperature;BMP_pressure;BME280_temperature;BME280_humidity;BME280_pressure;Samples;Min_cycle;Max_cycle;Signal;HPM_P1;HPM_P2
2022/09/16 00:00:30;;;;;;;5.43;0.70;;;18.20;88.40;;;;;;5054877;28;20025;-73
2022/09/16 00:02:57;;;;;;;6.72;1.25;;;18.20;87.70;;;;;;5054482;28;20493;-73
2022/09/16 00:05:23;;;;;;;3.17;0.73;;;18.20;88.10;;;;;;5054888;28;20078;-73
2022/09/16 00:07:48;;;;;;;7.03;0.80;;;18.20;88.10;;;;;;5054456;28;20033;-74
2022/09/16 00:10:14;;;;;;;4.80;0.77;;;18.20;89.00;;;;;;5054510;28;20021;-73
2022/09/16 00:12:40;;;;;;;6.10;0.95;;;18.10;88.90;;;;;;5054525;28;20478;-73
2022/09/16 00:15:06;;;;;;;5.53;1.00;;;18.10;88.10;;;;;;5054522;28;20052;-74
2022/09/16 00:17:33;;;;;;;7.38;1.02;;;18.00;88.30;;;;;;5052924;28;20024;-73
2022/09/16 00:19:59;;;;;;;2.38;0.65;;;18.10;88.80;;;;;;5053236;28;20017;-73
2022/09/16 00:22:27;;;;;;;5.32;0.85;;;18.00;89.00;;;;;;5054307;28;20036;-74
2022/09/16 00:24:53;;;;;;;5.00;1.10;;;18.00;88.40;;;;;;5054402;28;20029;-73
2022/09/16 00:27:19;;;;;;;4.93;1.10;;;18.00;89.60;;;;;;5054365;28;20092;-73
2022/09/16 00:29:44;;;;;;;4.82;0.60;;;17.90;88.70;;;;;;5054290;28;20028;-73
2022/09/16 00:32:10;;;;;;;6.13;0.57;;;17.90;89.50;;;;;;5053693;28;20021;-73
2022/09/16 00:34:35;;;;;;;3.47;0.60;;;17.90;88.60;;;;;;5054104;28;20025;-73
2022/09/16 00:37:06;;;;;;;5.57;0.93;;;17.90;88.10;;;;;;5053958;28;20027;-73
2022/09/16 00:39:31;;;;;;;3.97;0.70;;;17.90;88.20;;;;;;5054216;28;20019;-74
2022/09/16 00:41:57;;;;;;;5.80;0.65;;;17.80;89.20;;;;;;5053989;28;20468;-73
2022/09/16 00:44:56;;;;;;;3.67;0.57;;;17.90;88.30;;;;;;5053965;28;20025;-74
2022/09/16 00:47:33;;;;;;;3.45;0.57;;;17.80;88.00;;;;;;5054008;28;20037;-73
2022/09/16 00:50:09;;;;;;;6.50;1.13;;;17.80;88.00;;;;;;5052849;28;20024;-74
2022/09/16 00:52:35;;;;;;;4.15;0.63;;;17.90;87.70;;;;;;5053665;28;20021;-74
2022/09/16 00:55:05;;;;;;;4.07;0.75;;;17.80;87.90;;;;;;5053866;28;20385;-74
2022/09/16 00:57:31;;;;;;;4.68;0.93;;;17.80;88.00;;;;;;5053727;28;20024;-74
2022/09/16 00:59:57;;;;;;;5.57;0.90;;;17.90;87.80;;;;;;5053606;28;20425;-74
2022/09/16 01:02:23;;;;;;;4.50;0.88;;;17.90;88.40;;;;;;5051979;28;20074;-74
2022/09/16 01:05:04;;;;;;;4.72;0.90;;;17.90;88.00;;;;;;5053437;28;20109;-74
2022/09/16 01:07:35;;;;;;;6.50;1.13;;;17.90;87.30;;;;;;5053392;28;20021;-74
2022/09/16 01:10:00;;;;;;;4.50;0.63;;;17.90;87.40;;;;;;5053649;28;20041;-74
2022/09/16 01:12:28;;;;;;;4.55;0.82;;;17.80;87.30;;;;;;5053523;28;20101;-73
2022/09/16 01:14:54;;;;;;;2.75;0.60;;;17.90;86.80;;;;;;5053222;28;20024;-73
2022/09/16 01:18:04;;;;;;;5.22;0.70;;;17.90;87.40;;;;;;5053229;28;20025;-73
2022/09/16 01:20:46;;;;;;;4.93;0.75;;;17.90;89.70;;;;;;5047924;28;20033;-73
2022/09/16 01:23:33;;;;;;;7.55;0.98;;;17.80;90.60;;;;;;5053120;28;20017;-73
2022/09/16 01:26:31;;;;;;;5.38;1.13;;;17.90;90.80;;;;;;5053443;28;20163;-73
2022/09/16 01:28:59;;;;;;;5.25;0.80;;;17.90;91.10;;;;;;5053042;28;20489;-73
2022/09/16 01:31:25;;;;;;;3.90;0.82;;;17.90;91.00;;;;;;5052831;28;20037;-73
2022/09/16 01:34:13;;;;;;;7.03;0.60;;;17.90;91.50;;;;;;5053031;28;20033;-73
2022/09/16 01:37:07;;;;;;;5.53;0.93;;;17.90;91.60;;;;;;5032988;28;20105;-74
2022/09/16 01:39:54;;;;;;;6.50;0.88;;;17.90;91.40;;;;;;5052858;28;20084;-73
2022/09/16 01:42:46;;;;;;;3.13;0.50;;;17.90;91.70;;;;;;5052953;28;20041;-74
2022/09/16 01:45:37;;;;;;;7.63;0.80;;;17.80;91.90;;;;;;5052876;28;20017;-74
2022/09/16 01:48:38;;;;;;;5.25;0.80;;;17.80;92.30;;;;;;5052576;28;20043;-74
2022/09/16 01:51:25;;;;;;;4.28;1.00;;;17.90;92.10;;;;;;5044483;28;20033;-73
2022/09/16 01:54:10;;;;;;;5.35;0.80;;;17.80;92.50;;;;;;5052628;28;20552;-73
2022/09/16 01:56:43;;;;;;;8.38;1.10;;;17.80;92.70;;;;;;5053134;28;20462;-73
2022/09/16 01:59:28;;;;;;;3.95;0.85;;;17.80;92.70;;;;;;5052416;28;20021;-74
2022/09/16 02:02:03;;;;;;;4.22;0.90;;;17.80;92.80;;;;;;5052240;28;20493;-73
2022/09/16 02:04:35;;;;;;;3.13;0.38;;;17.80;92.90;;;;;;5052479;28;20095;-74
2022/09/16 02:07:04;;;;;;;4.47;0.60;;;17.70;92.90;;;;;;5052656;28;20078;-73
2022/09/16 02:09:36;;;;;;;1.92;0.30;;;17.70;93.00;;;;;;5051203;28;20113;-74
2022/09/16 02:12:08;;;;;;;4.30;0.65;;;17.70;93.00;;;;;;5035606;28;20490;-74
2022/09/16 02:14:42;;;;;;;2.75;0.55;;;17.70;93.80;;;;;;5040051;28;20017;-74
2022/09/16 02:17:15;;;;;;;5.78;1.05;;;17.70;93.50;;;;;;5037792;28;20429;-74
2022/09/16 02:19:42;;;;;;;3.22;0.50;;;17.70;93.40;;;;;;5046572;28;20079;-73
2022/09/16 02:22:12;;;;;;;5.53;0.60;;;17.60;93.30;;;;;;5032818;28;20101;-74
2022/09/16 02:24:40;;;;;;;3.90;0.80;;;17.70;93.50;;;;;;5032298;28;20440;-74
2022/09/16 02:27:11;;;;;;;4.80;0.68;;;17.60;93.40;;;;;;5031854;28;20152;-74
2022/09/16 02:29:42;;;;;;;5.13;0.63;;;17.60;93.20;;;;;;5032651;28;20040;-74
2022/09/16 02:32:09;;;;;;;3.50;0.60;;;17.60;93.20;;;;;;5032641;28;20025;-73
2022/09/16 02:34:46;;;;;;;4.13;0.55;;;17.50;93.50;;;;;;5032595;28;20025;-73
2022/09/16 02:37:25;;;;;;;3.28;0.40;;;17.50;93.60;;;;;;5032602;28;20037;-74
2022/09/16 02:39:56;;;;;;;6.25;1.15;;;17.50;93.50;;;;;;5032740;28;20021;-74
2022/09/16 02:42:22;;;;;;;8.48;1.15;;;17.40;93.60;;;;;;5032082;28;20033;-74
2022/09/16 02:44:49;;;;;;;7.95;0.85;;;17.40;93.70;;;;;;5032579;28;20029;-74
2022/09/16 02:47:49;;;;;;;4.32;0.60;;;17.40;93.90;;;;;;5032486;28;20122;-73
2022/09/16 02:50:23;;;;;;;3.58;0.75;;;17.40;94.10;;;;;;5032213;28;20034;-74
2022/09/16 02:52:54;;;;;;;6.60;0.95;;;17.40;93.90;;;;;;5032792;28;20022;-73
2022/09/16 02:55:19;;;;;;;5.68;0.98;;;17.40;93.90;;;;;;5032353;28;20032;-73
2022/09/16 02:57:45;;;;;;;4.43;0.50;;;17.40;93.80;;;;;;5032286;28;20375;-74
2022/09/16 03:00:11;;;;;;;7.82;1.08;;;17.40;93.90;;;;;;5032189;28;20032;-74
2022/09/16 03:02:37;;;;;;;4.75;0.57;;;17.30;94.10;;;;;;5032297;28;20037;-74
2022/09/16 03:05:03;;;;;;;9.02;0.70;;;17.30;94.20;;;;;;5032260;28;20029;-74
2022/09/16 03:07:29;;;;;;;6.10;1.15;;;17.30;94.20;;;;;;5032443;28;20033;-74
2022/09/16 03:09:54;;;;;;;7.05;0.70;;;17.30;94.00;;;;;;5032465;28;20360;-74
2022/09/16 03:12:56;;;;;;;4.65;0.88;;;17.30;94.10;;;;;;5032246;28;20033;-74
2022/09/16 03:15:39;;;;;;;2.53;0.40;;;17.30;93.90;;;;;;5035680;28;20036;-74
2022/09/16 03:18:23;;;;;;;5.15;0.60;;;17.30;94.00;;;;;;5036280;28;20025;-73
2022/09/16 03:21:12;;;;;;;3.75;0.70;;;17.30;93.60;;;;;;5035618;28;20029;-74
2022/09/16 03:24:08;;;;;;;4.43;0.57;;;17.30;93.70;;;;;;5034338;28;20534;-74
2022/09/16 03:26:56;;;;;;;4.93;0.52;;;17.40;93.80;;;;;;5035132;28;20021;-73
2022/09/16 03:29:32;;;;;;;4.53;0.55;;;17.30;93.90;;;;;;5034305;28;20037;-73
2022/09/16 03:32:20;;;;;;;4.03;0.52;;;17.20;94.10;;;;;;5034429;28;20394;-73
2022/09/16 03:34:54;;;;;;;2.88;0.50;;;17.30;94.10;;;;;;5035551;28;20022;-73
2022/09/16 03:37:22;;;;;;;1.85;0.85;;;17.30;94.10;;;;;;5035392;28;20040;-74
2022/09/16 03:39:54;;;;;;;4.13;0.43;;;17.30;94.50;;;;;;5035266;28;20441;-74
2022/09/16 03:42:21;;;;;;;5.90;0.98;;;17.30;94.60;;;;;;5035600;28;20052;-73
2022/09/16 03:44:47;;;;;;;5.18;0.82;;;17.30;94.70;;;;;;5035296;28;20020;-73
2022/09/16 03:47:12;;;;;;;5.18;1.00;;;17.20;95.10;;;;;;5035232;28;20017;-73
2022/09/16 03:49:38;;;;;;;5.22;1.05;;;17.20;95.40;;;;;;5035195;28;20390;-73
2022/09/16 03:52:07;;;;;;;6.65;0.82;;;17.20;95.40;;;;;;5034981;28;20026;-74
2022/09/16 03:54:34;;;;;;;4.85;0.65;;;17.20;95.30;;;;;;5034754;28;20091;-73
2022/09/16 03:57:00;;;;;;;5.03;0.60;;;17.20;95.60;;;;;;5034755;28;20489;-74
2022/09/16 03:59:27;;;;;;;4.75;0.75;;;17.20;95.80;;;;;;5035253;28;20024;-73
2022/09/16 04:01:53;;;;;;;5.80;0.82;;;17.20;95.70;;;;;;5034830;28;20029;-73
2022/09/16 04:04:18;;;;;;;4.47;0.90;;;17.20;95.90;;;;;;5034699;28;20041;-73
2022/09/16 04:06:44;;;;;;;3.58;0.70;;;17.20;96.00;;;;;;5034857;28;20018;-74
2022/09/16 04:09:11;;;;;;;4.45;0.70;;;17.20;96.00;;;;;;5034605;28;20360;-73
2022/09/16 04:11:37;;;;;;;5.65;0.90;;;17.20;96.10;;;;;;5034750;28;20459;-73
2022/09/16 04:14:04;;;;;;;3.17;0.68;;;17.20;95.80;;;;;;5034676;28;20056;-73
2022/09/16 04:16:30;;;;;;;4.13;1.10;;;17.20;95.90;;;;;;5034596;28;20026;-73
2022/09/16 04:18:56;;;;;;;6.05;0.60;;;17.10;96.00;;;;;;5034574;28;20048;-73
2022/09/16 04:21:22;;;;;;;10.45;0.77;;;17.10;95.90;;;;;;5034497;28;20148;-73
2022/09/16 04:23:49;;;;;;;3.45;0.73;;;17.10;96.40;;;;;;5033821;28;20511;-74
2022/09/16 04:26:15;;;;;;;3.53;0.90;;;17.20;96.70;;;;;;5034490;28;20391;-74
2022/09/16 04:28:41;;;;;;;5.53;0.63;;;17.10;97.10;;;;;;5034721;28;20363;-74
2022/09/16 04:31:10;;;;;;;6.00;0.57;;;17.10;96.90;;;;;;5034806;28;20035;-74
2022/09/16 04:33:36;;;;;;;3.05;0.70;;;17.10;96.70;;;;;;5033520;28;20100;-73
2022/09/16 04:36:04;;;;;;;3.67;0.70;;;17.10;96.30;;;;;;5034282;28;20036;-73
2022/09/16 04:38:30;;;;;;;6.00;0.50;;;17.10;96.50;;;;;;5033874;28;20032;-73
2022/09/16 04:41:11;;;;;;;4.05;0.60;;;17.10;96.70;;;;;;5034042;28;20041;-73
2022/09/16 04:43:37;;;;;;;6.90;0.82;;;17.10;96.80;;;;;;5034138;28;20032;-73
2022/09/16 04:46:03;;;;;;;6.88;1.55;;;17.10;97.20;;;;;;5033379;28;20026;-74
2022/09/16 04:48:29;;;;;;;7.20;1.10;;;17.10;97.40;;;;;;5033886;28;20041;-73
2022/09/16 04:51:05;;;;;;;7.30;1.42;;;17.10;97.60;;;;;;5033977;28;20025;-73
2022/09/16 04:53:30;;;;;;;7.15;1.23;;;17.10;97.50;;;;;;5033467;28;20558;-73
2022/09/16 04:56:30;;;;;;;8.40;0.90;;;17.10;97.30;;;;;;5033960;28;20104;-73
2022/09/16 04:59:01;;;;;;;4.80;1.05;;;17.10;97.70;;;;;;5011741;28;20045;-73
2022/09/16 05:01:29;;;;;;;4.20;0.50;;;17.10;97.70;;;;;;5035840;28;20033;-73
2022/09/16 05:03:57;;;;;;;3.10;0.43;;;17.10;97.10;;;;;;5053345;28;20024;-73
2022/09/16 05:06:26;;;;;;;3.55;0.40;;;17.20;97.00;;;;;;5053252;28;20402;-73
2022/09/16 05:08:54;;;;;;;4.85;0.70;;;17.10;97.10;;;;;;5044065;28;20034;-73
2022/09/16 05:11:26;;;;;;;4.18;0.82;;;17.10;97.20;;;;;;5041329;28;20651;-73
2022/09/16 05:13:53;;;;;;;3.53;0.45;;;17.00;97.50;;;;;;5038424;28;20547;-73
2022/09/16 05:16:22;;;;;;;5.03;1.00;;;16.90;97.70;;;;;;5043263;28;20390;-73
2022/09/16 05:18:49;;;;;;;2.90;0.52;;;16.80;97.80;;;;;;5041084;28;20032;-72
2022/09/16 05:21:19;;;;;;;4.18;1.08;;;16.90;97.70;;;;;;5036864;28;20449;-73
2022/09/16 05:23:46;;;;;;;3.55;0.60;;;16.80;98.00;;;;;;5042953;28;20032;-73
2022/09/16 05:26:19;;;;;;;3.63;0.98;;;16.80;98.00;;;;;;5035153;28;20037;-73
2022/09/16 05:28:45;;;;;;;4.10;1.08;;;16.80;98.10;;;;;;5033630;28;20063;-73
2022/09/16 05:31:18;;;;;;;3.25;0.88;;;16.80;97.80;;;;;;5039541;28;20033;-73
2022/09/16 05:33:46;;;;;;;4.18;1.08;;;16.80;98.00;;;;;;5046653;28;20025;-73
2022/09/16 05:36:15;;;;;;;4.43;0.85;;;16.90;97.70;;;;;;5040053;28;20025;-73
2022/09/16 05:38:41;;;;;;;8.20;1.52;;;16.90;97.60;;;;;;5035654;28;20485;-73
2022/09/16 05:41:07;;;;;;;5.82;1.02;;;16.80;97.80;;;;;;5037629;28;20041;-73
2022/09/16 05:43:34;;;;;;;5.10;0.77;;;16.80;98.00;;;;;;5042962;28;20036;-73
2022/09/16 05:46:00;;;;;;;8.65;1.40;;;16.80;98.00;;;;;;5039696;28;20113;-74
2022/09/16 05:48:27;;;;;;;3.50;0.80;;;16.70;98.30;;;;;;5039963;28;20033;-73
2022/09/16 05:50:58;;;;;;;4.80;0.80;;;16.80;98.40;;;;;;5035037;28;20022;-74
2022/09/16 05:53:25;;;;;;;6.10;1.30;;;17.00;98.20;;;;;;5039147;28;20542;-73
2022/09/16 05:55:59;;;;;;;2.90;0.82;;;17.50;96.90;;;;;;5050070;28;20028;-73
2022/09/16 05:58:26;;;;;;;5.80;1.20;;;17.80;96.10;;;;;;5049275;28;20033;-73
2022/09/16 06:01:01;;;;;;;11.25;1.77;;;18.00;95.30;;;;;;5045318;28;20025;-73
2022/09/16 06:03:28;;;;;;;6.43;1.52;;;18.00;95.50;;;;;;5036277;28;20057;-73
2022/09/16 06:06:19;;;;;;;5.15;0.80;;;18.10;95.50;;;;;;5036570;28;20064;-74
2022/09/16 06:08:45;;;;;;;3.83;0.80;;;18.20;95.50;;;;;;5027151;28;20037;-74
2022/09/16 06:11:11;;;;;;;5.45;0.93;;;18.20;95.30;;;;;;5040412;28;20040;-74
2022/09/16 06:13:37;;;;;;;9.70;0.77;;;18.20;95.40;;;;;;5037325;28;20060;-71
2022/09/16 06:16:05;;;;;;;6.78;1.42;;;18.20;95.30;;;;;;5048283;28;20104;-74
2022/09/16 06:18:32;;;;;;;6.75;1.05;;;18.20;95.40;;;;;;5053876;28;20182;-74
2022/09/16 06:21:02;;;;;;;11.18;1.40;;;18.20;95.30;;;;;;5040607;28;20108;-75
2022/09/16 06:23:28;;;;;;;9.98;0.90;;;18.20;95.30;;;;;;5032495;28;20390;-75
2022/09/16 06:26:22;;;;;;;5.57;1.00;;;18.10;95.30;;;;;;5031697;28;20475;-75
2022/09/16 06:28:48;;;;;;;5.05;0.90;;;18.20;95.30;;;;;;5036309;28;20047;-75
2022/09/16 06:31:20;;;;;;;4.25;0.82;;;18.20;95.10;;;;;;5033130;28;20114;-75
2022/09/16 06:33:46;;;;;;;7.40;1.17;;;18.20;95.10;;;;;;5031287;28;20037;-75
2022/09/16 06:36:33;;;;;;;6.57;0.75;;;18.20;95.30;;;;;;5035734;28;20486;-74
2022/09/16 06:38:58;;;;;;;6.05;1.27;;;18.20;95.20;;;;;;5041270;28;20112;-75
2022/09/16 06:41:24;;;;;;;6.10;0.88;;;18.20;95.20;;;;;;5031876;28;20116;-75
2022/09/16 06:43:50;;;;;;;5.00;0.90;;;18.20;95.30;;;;;;5030589;28;20030;-74
2022/09/16 06:46:22;;;;;;;7.20;0.90;;;18.20;95.20;;;;;;5035917;28;20427;-74
2022/09/16 06:48:50;;;;;;;5.43;0.63;;;18.20;95.30;;;;;;5034692;28;20033;-74
2022/09/16 06:51:24;;;;;;;3.22;1.10;;;18.20;95.30;;;;;;5035352;28;20022;-75
2022/09/16 06:53:51;;;;;;;6.60;0.70;;;18.20;95.30;;;;;;5039471;28;20385;-75
2022/09/16 06:56:19;;;;;;;5.80;0.80;;;18.30;95.20;;;;;;5046534;28;20078;-75
2022/09/16 06:58:49;;;;;;;5.63;0.70;;;18.20;95.10;;;;;;5042801;28;20548;-75
2022/09/16 07:01:23;;;;;;;4.93;0.57;;;18.30;94.90;;;;;;5035601;28;20021;-74
2022/09/16 07:03:51;;;;;;;4.65;0.80;;;18.30;94.80;;;;;;5035393;28;20025;-74
2022/09/16 07:06:19;;;;;;;4.30;0.80;;;18.30;94.70;;;;;;5046306;28;20024;-74
2022/09/16 07:08:45;;;;;;;5.93;1.10;;;18.30;94.60;;;;;;5050210;28;20033;-74
2022/09/16 07:11:15;;;;;;;7.95;0.98;;;18.30;94.50;;;;;;5039774;28;20135;-75
2022/09/16 07:13:42;;;;;;;5.05;0.70;;;18.40;94.30;;;;;;5043513;28;20064;-73
2022/09/16 07:16:11;;;;;;;3.40;0.50;;;18.40;94.10;;;;;;5037473;28;20069;-73
2022/09/16 07:18:37;;;;;;;2.70;0.47;;;18.30;94.20;;;;;;5038121;28;20029;-74
2022/09/16 07:21:05;;;;;;;4.20;0.88;;;18.30;94.20;;;;;;5039909;28;20032;-73
2022/09/16 07:23:32;;;;;;;3.67;0.52;;;18.30;94.20;;;;;;5042818;28;20060;-73
2022/09/16 07:26:07;;;;;;;6.47;0.80;;;18.30;94.40;;;;;;5041036;28;20084;-73
2022/09/16 07:28:34;;;;;;;2.47;0.57;;;18.20;94.60;;;;;;5040235;28;20034;-74
2022/09/16 07:31:05;;;;;;;4.63;0.50;;;18.20;94.60;;;;;;5052041;28;20386;-74
2022/09/16 07:33:35;;;;;;;4.93;0.77;;;18.20;94.70;;;;;;5040797;28;20080;-74
2022/09/16 07:36:01;;;;;;;4.90;1.02;;;18.20;95.00;;;;;;5035521;28;20032;-74
2022/09/16 07:38:28;;;;;;;5.47;1.25;;;18.20;95.20;;;;;;5045167;28;20482;-74
2022/09/16 07:40:54;;;;;;;5.65;0.90;;;18.20;95.30;;;;;;5035058;28;20033;-74
2022/09/16 07:43:20;;;;;;;5.40;0.70;;;18.20;95.60;;;;;;5035193;28;20100;-74
2022/09/16 07:45:53;;;;;;;5.35;0.93;;;18.20;95.50;;;;;;5042809;28;20120;-74
2022/09/16 07:48:19;;;;;;;6.90;1.33;;;18.20;95.60;;;;;;5042306;28;20099;-74
2022/09/16 07:51:04;;;;;;;3.50;0.70;;;18.20;95.40;;;;;;5045542;28;20382;-74
2022/09/16 07:53:32;;;;;;;3.92;1.00;;;18.30;95.30;;;;;;5055124;28;20104;-74
2022/09/16 07:56:09;;;;;;;2.80;0.60;;;18.20;95.50;;;;;;5052498;28;20478;-74
2022/09/16 07:58:37;;;;;;;3.63;0.80;;;18.20;96.10;;;;;;5054259;28;20056;-74
2022/09/16 08:01:04;;;;;;;3.63;0.43;;;18.20;95.90;;;;;;5050134;28;20049;-74
2022/09/16 08:03:31;;;;;;;3.55;0.73;;;18.10;95.90;;;;;;5045699;28;20485;-74
2022/09/16 08:06:05;;;;;;;5.03;1.05;;;18.00;96.30;;;;;;5052264;28;20029;-75
2022/09/16 08:08:32;;;;;;;4.13;0.40;;;18.00;96.00;;;;;;5042523;28;20041;-74
2022/09/16 08:10:58;;;;;;;4.65;0.57;;;18.00;95.80;;;;;;5043790;28;20025;-74
2022/09/16 08:13:25;;;;;;;3.85;0.90;;;18.10;95.90;;;;;;5033806;28;20079;-73
2022/09/16 08:15:53;;;;;;;9.68;1.20;;;18.00;95.90;;;;;;5039033;28;20104;-75
2022/09/16 08:18:18;;;;;;;2.45;0.55;;;18.00;95.80;;;;;;5034053;28;20034;-75
2022/09/16 08:20:44;;;;;;;4.57;0.90;;;18.10;96.00;;;;;;5032537;28;20022;-75
2022/09/16 08:23:10;;;;;;;4.45;0.90;;;18.10;95.80;;;;;;5034077;28;20037;-75
2022/09/16 08:25:35;;;;;;;2.38;0.55;;;18.10;96.10;;;;;;5034528;28;20045;-75
2022/09/16 08:28:02;;;;;;;6.10;1.17;;;18.20;96.30;;;;;;5036717;28;20397;-75
2022/09/16 08:30:27;;;;;;;5.30;0.50;;;18.20;96.70;;;;;;5042076;28;20033;-75
2022/09/16 08:32:57;;;;;;;2.90;0.90;;;18.20;96.70;;;;;;5038817;28;20386;-75
2022/09/16 08:35:24;;;;;;;2.40;0.50;;;18.10;96.70;;;;;;5041372;28;20100;-75
2022/09/16 08:37:50;;;;;;;3.25;0.30;;;18.10;96.50;;;;;;5053991;28;20467;-75
2022/09/16 08:40:20;;;;;;;4.15;1.00;;;18.10;96.20;;;;;;5041888;28;20036;-75
2022/09/16 08:43:16;;;;;;;3.67;0.63;;;18.10;96.10;;;;;;5040454;28;20387;-75
2022/09/16 08:45:47;;;;;;;5.90;0.65;;;18.20;96.10;;;;;;5050533;28;20017;-74
2022/09/16 08:48:24;;;;;;;3.05;0.50;;;18.00;96.70;;;;;;5032358;28;20475;-75
2022/09/16 08:50:51;;;;;;;3.17;0.60;;;18.00;96.60;;;;;;5056202;28;20040;-75
2022/09/16 08:53:46;;;;;;;3.75;0.88;;;18.00;96.30;;;;;;5037945;28;20439;-74
2022/09/16 08:56:16;;;;;;;4.68;0.70;;;18.00;96.20;;;;;;5015270;28;20037;-75
2022/09/16 08:58:49;;;;;;;4.30;0.70;;;18.00;96.20;;;;;;5031709;28;20104;-75
2022/09/16 09:01:23;;;;;;;;;;;18.00;96.30;;;;;;5040663;28;20410;-75
2022/09/16 09:03:48;;;;;;;6.45;0.57;;;18.10;96.00;;;;;;5037579;28;19960;-75
2022/09/16 09:06:43;;;;;;;4.00;0.50;;;18.20;96.10;;;;;;5055078;28;20448;-75
2022/09/16 09:09:35;;;;;;;1.95;0.30;;;18.30;95.90;;;;;;5051474;28;20103;-74
2022/09/16 09:12:05;;;;;;;3.05;0.30;;;18.40;95.80;;;;;;5033759;28;20040;-74
2022/09/16 09:15:08;;;;;;;3.33;0.77;;;18.40;95.80;;;;;;5035546;28;20160;-75
2022/09/16 09:17:34;;;;;;;;;;;18.40;95.90;;;;;;5039024;28;20025;-75
2022/09/16 09:20:04;;;;;;;3.83;0.43;;;18.40;95.50;;;;;;5040226;28;20439;-75
2022/09/16 09:22:42;;;;;;;3.42;0.50;;;18.40;95.60;;;;;;5046988;28;20025;-74
2022/09/16 09:25:16;;;;;;;2.20;0.30;;;18.40;95.50;;;;;;5037315;28;20075;-74
2022/09/16 09:27:57;;;;;;;1.65;0.38;;;18.40;95.10;;;;;;5038680;28;20445;-74
2022/09/16 09:30:25;;;;;;;3.38;0.35;;;18.50;94.80;;;;;;5043662;28;20425;-73
2022/09/16 09:33:19;;;;;;;4.78;0.60;;;18.50;94.60;;;;;;5044879;28;20115;-74
2022/09/16 09:36:26;;;;;;;3.45;0.45;;;18.50;94.70;;;;;;5039897;28;20021;-74
2022/09/16 09:39:15;;;;;;;2.65;0.43;;;18.50;94.30;;;;;;5041906;28;20033;-71
2022/09/16 09:41:57;;;;;;;2.90;0.30;;;18.50;94.10;;;;;;5044890;28;20033;-73
2022/09/16 09:44:46;;;;;;;5.83;0.70;;;18.30;93.80;;;;;;5035455;28;20029;-74
2022/09/16 09:47:26;;;;;;;5.22;0.80;;;18.30;94.00;;;;;;5053451;28;20017;-73
2022/09/16 09:50:01;;;;;;;1.95;0.60;;;18.20;94.40;;;;;;5060581;28;20116;-76
2022/09/16 09:52:53;;;;;;;4.30;0.40;;;18.20;95.00;;;;;;5041350;28;20021;-75
2022/09/16 09:55:21;;;;;;;2.17;0.50;;;18.10;95.00;;;;;;5036631;28;20024;-73
2022/09/16 09:58:00;;;;;;;2.58;0.70;;;18.00;95.50;;;;;;5047505;28;20031;-73
2022/09/16 10:00:25;;;;;;;2.03;0.40;;;18.10;95.40;;;;;;5046721;28;20063;-73
2022/09/16 10:02:51;;;;;;;2.00;0.38;;;18.00;95.50;;;;;;5034771;28;20501;-73
2022/09/16 10:05:24;;;;;;;2.13;0.75;;;18.00;95.40;;;;;;5063685;28;20017;-73
2022/09/16 10:08:15;;;;;;;4.22;1.05;;;18.20;95.50;;;;;;5054856;28;20055;-74
2022/09/16 10:10:48;;;;;;;4.45;0.70;;;18.20;95.70;;;;;;5042244;28;20064;-75
2022/09/16 10:13:13;;;;;;;5.60;1.25;;;18.30;96.00;;;;;;5031685;28;20048;-74
2022/09/16 10:15:39;;;;;;;3.55;0.50;;;18.30;96.40;;;;;;5031727;28;20021;-74
2022/09/16 10:18:26;;;;;;;2.35;0.60;;;18.30;96.30;;;;;;5031281;28;20053;-74
2022/09/16 10:21:13;;;;;;;3.08;0.57;;;18.30;95.80;;;;;;5036197;28;20029;-73
2022/09/16 10:23:39;;;;;;;6.20;1.60;;;18.30;96.10;;;;;;5036593;28;20109;-74
2022/09/16 10:26:19;;;;;;;4.88;0.77;;;18.20;95.10;;;;;;5034744;28;20463;-75
2022/09/16 10:29:13;;;;;;;3.45;0.20;;;18.20;95.10;;;;;;5035523;28;20088;-73
2022/09/16 10:31:41;;;;;;;2.40;0.40;;;18.10;95.20;;;;;;5045409;28;20025;-74
2022/09/16 10:34:30;;;;;;;4.10;0.80;;;18.20;95.10;;;;;;5045206;28;20040;-74
2022/09/16 10:37:22;;;;;;;6.97;0.77;;;18.10;95.00;;;;;;5053212;28;20016;-74
2022/09/16 10:39:54;;;;;;;2.65;0.52;;;18.20;95.00;;;;;;5062302;28;20411;-75
2022/09/16 10:42:23;;;;;;;3.10;0.38;;;18.20;95.00;;;;;;5046644;28;20041;-74
2022/09/16 10:44:51;;;;;;;4.68;0.95;;;18.30;95.00;;;;;;5047260;28;20108;-74
2022/09/16 10:47:24;;;;;;;3.42;0.40;;;18.40;94.80;;;;;;5045350;28;20026;-75
2022/09/16 10:49:53;;;;;;;2.55;0.60;;;18.40;94.90;;;;;;5060592;28;20028;-73
2022/09/16 10:52:27;;;;;;;4.63;0.68;;;18.50;95.00;;;;;;5063330;28;20056;-75
2022/09/16 10:54:54;;;;;;;6.50;1.00;;;18.50;95.20;;;;;;5051756;28;20027;-72
2022/09/16 10:57:21;;;;;;;4.07;0.57;;;18.60;95.30;;;;;;5049861;28;20515;-72
2022/09/16 11:00:18;;;;;;;4.25;0.50;;;18.60;95.30;;;;;;5040543;28;20437;-74
2022/09/16 11:02:52;;;;;;;5.85;0.90;;;18.60;95.40;;;;;;5049645;28;20032;-73
2022/09/16 11:05:38;;;;;;;6.07;0.70;;;18.60;95.90;;;;;;5045882;28;20104;-74
2022/09/16 11:08:15;;;;;;;3.47;0.80;;;18.60;95.60;;;;;;5055696;28;20119;-73
2022/09/16 11:10:55;;;;;;;3.00;0.30;;;18.60;95.70;;;;;;5050332;28;20025;-73
2022/09/16 11:14:01;;;;;;;4.65;0.63;;;18.60;95.60;;;;;;5035761;28;20025;-74
2022/09/16 11:16:46;;;;;;;2.25;0.50;;;18.70;95.60;;;;;;5046905;28;20572;-73
2022/09/16 11:19:20;;;;;;;3.75;0.50;;;18.70;95.60;;;;;;5038341;28;20053;-78
2022/09/16 11:22:01;;;;;;;3.28;0.50;;;18.80;95.20;;;;;;5035321;28;20021;-77
2022/09/16 11:24:32;;;;;;;3.83;0.90;;;18.80;95.10;;;;;;5034715;28;20091;-77
2022/09/16 11:26:58;;;;;;;6.22;0.73;;;18.80;95.80;;;;;;5044133;28;20105;-73
2022/09/16 11:29:53;;;;;;;7.75;1.23;;;18.80;95.50;;;;;;5038127;28;20116;-77
2022/09/16 11:32:46;;;;;;;7.03;0.75;;;18.70;94.30;;;;;;5043023;28;20025;-77
2022/09/16 11:35:38;;;;;;;4.47;0.52;;;18.80;94.50;;;;;;5048241;28;20490;-77
2022/09/16 11:38:46;;;;;;;5.30;0.60;;;18.80;94.20;;;;;;5044371;28;20037;-72
2022/09/16 11:41:19;;;;;;;5.97;0.80;;;18.80;94.20;;;;;;5051490;28;20040;-73
2022/09/16 11:44:09;;;;;;;5.28;0.82;;;18.80;93.60;;;;;;5038042;28;20116;-73
2022/09/16 11:47:05;;;;;;;5.07;0.50;;;18.90;93.50;;;;;;5049881;28;20382;-73
2022/09/16 11:50:08;;;;;;;3.35;0.77;;;18.90;93.80;;;;;;5043419;28;20033;-74
2022/09/16 11:53:01;;;;;;;6.18;1.50;;;18.80;94.60;;;;;;5048382;28;20077;-74
2022/09/16 11:55:44;;;;;;;7.57;1.25;;;18.70;95.30;;;;;;5050509;28;20397;-74
2022/09/16 11:58:30;;;;;;;3.38;0.55;;;18.50;95.20;;;;;;5051175;28;20114;-75
2022/09/16 12:01:00;;;;;;;4.10;0.77;;;18.30;94.90;;;;;;5050482;28;20083;-73
2022/09/16 12:03:45;;;;;;;3.28;0.70;;;18.30;94.90;;;;;;5036118;28;20108;-73
2022/09/16 12:06:16;;;;;;;4.80;1.08;;;18.30;94.90;;;;;;5039640;28;20095;-73
2022/09/16 12:08:53;;;;;;;5.25;0.80;;;18.30;94.80;;;;;;5056623;28;20055;-74
2022/09/16 12:11:31;;;;;;;5.28;0.75;;;18.30;95.20;;;;;;5050228;28;20078;-73
2022/09/16 12:14:14;;;;;;;4.13;0.60;;;18.30;95.70;;;;;;5062936;28;20021;-74
2022/09/16 12:16:40;;;;;;;6.80;0.60;;;18.40;95.20;;;;;;5038288;28;20018;-73
2022/09/16 12:19:12;;;;;;;5.88;0.73;;;18.30;95.00;;;;;;5035125;28;21669;-73
2022/09/16 12:21:47;;;;;;;4.10;0.65;;;18.20;94.80;;;;;;5056237;28;20049;-73
2022/09/16 12:24:23;;;;;;;6.97;0.50;;;18.20;95.20;;;;;;5041755;28;20052;-75
2022/09/16 12:27:13;;;;;;;5.15;0.98;;;18.30;95.20;;;;;;5049592;28;20398;-74
2022/09/16 12:29:56;;;;;;;4.15;0.55;;;18.40;95.20;;;;;;5035406;28;20486;-73
2022/09/16 12:32:57;;;;;;;4.80;0.60;;;18.30;95.00;;;;;;5036403;28;20030;-74
2022/09/16 12:35:51;;;;;;;2.95;0.50;;;18.50;95.50;;;;;;5028860;28;20120;-75
2022/09/16 12:38:19;;;;;;;3.78;0.50;;;18.50;95.10;;;;;;5047500;28;20523;-73
2022/09/16 12:41:11;;;;;;;3.25;0.75;;;18.60;94.30;;;;;;5039139;28;20092;-73
2022/09/16 12:43:46;;;;;;;6.03;0.60;;;18.80;95.50;;;;;;5045973;28;20045;-74
2022/09/16 12:46:37;;;;;;;6.32;0.90;;;18.80;94.20;;;;;;5043800;28;20037;-72
2022/09/16 12:49:40;;;;;;;5.10;0.70;;;18.70;94.00;;;;;;5039682;28;20090;-72
2022/09/16 12:52:22;;;;;;;5.28;0.40;;;18.80;93.20;;;;;;5046793;28;20132;-73
2022/09/16 12:55:26;;;;;;;3.13;0.25;;;18.70;92.50;;;;;;5037957;28;20149;-70
2022/09/16 12:58:13;;;;;;;2.88;0.22;;;18.70;92.20;;;;;;5052616;28;20033;-69
2022/09/16 13:01:00;;;;;;;0.80;0.10;;;18.40;91.80;;;;;;5046022;28;20535;-72
2022/09/16 13:03:30;;;;;;;3.25;0.10;;;18.40;92.10;;;;;;5047589;28;20037;-73
2022/09/16 13:06:04;;;;;;;1.08;0.08;;;18.40;91.50;;;;;;5043716;28;20027;-74
2022/09/16 13:08:32;;;;;;;3.10;0.10;;;18.40;90.90;;;;;;5044663;28;20044;-74
2022/09/16 13:11:01;;;;;;;0.68;0.03;;;18.40;90.40;;;;;;5043345;28;20561;-74
2022/09/16 13:13:30;;;;;;;2.85;0.30;;;18.40;90.50;;;;;;5049264;28;20064;-74
2022/09/16 13:15:58;;;;;;;0.50;0.00;;;18.60;91.00;;;;;;5046915;28;20025;-74
2022/09/16 13:18:36;;;;;;;1.25;0.10;;;18.60;90.40;;;;;;5032902;28;20021;-74
2022/09/16 13:21:12;;;;;;;1.38;0.20;;;18.60;90.60;;;;;;5032270;28;20025;-74
2022/09/16 13:23:44;;;;;;;1.40;0.13;;;18.60;91.50;;;;;;5033266;28;20112;-74